Sleepy Eye, Minnesota
Current Conditions -  °F | °C
As of 4:13 AM on Friday 31 Oct 2014 (Local Time) from KULM Reporting Station
Clear Clear  
Wind Chill: 17°   Ceiling: Unl
Heat Index: 27°   Visibility: 10mi
Dew Point: 18°   Wind: 10mph
Humidity: 69%   Direction: 330°NNW
Pressure: 30.48"   Gusts: NA
Location:  44.3°N, 94.72°W
Report Text: KULM 310913Z AUTO 33009KT 10SM CLR M03/M08 A3048 RMK AO2
Loading
Personal Weather Stations






























Interactive Weather Map
Tropical Storm Tracking
New forecast layout! Learn more

10-Day Weather Forecast

Advertisements
Track Severe Weather on mobile